Time;durP1;ratioP1;P1;durP2;ratioP2;P2;SDS_P1;SDS_P2;PMS_P1;PMS_P2;Temp;Humidity;BMP_temperature;BMP_pressure;BME280_temperature;BME280_humidity;BME280_pressure;Samples;Min_cycle;Max_cycle;Signal;HPM_P1;HPM_P2
2022/07/24 00:01:12;;;;;;;11.95;10.77;;;;;;;;;;4897072;29;20052;-68
2022/07/24 00:03:38;;;;;;;11.05;9.95;;;;;;;;;;4897016;29;20048;-67
2022/07/24 00:06:05;;;;;;;11.45;10.32;;;;;;;;;;4896884;29;20052;-67
2022/07/24 00:08:32;;;;;;;11.95;10.73;;;;;;;;;;4896620;29;20053;-68
2022/07/24 00:10:59;;;;;;;11.88;10.68;;;;;;;;;;4896700;29;20059;-68
2022/07/24 00:13:26;;;;;;;12.32;11.13;;;;;;;;;;4897050;29;20052;-68
2022/07/24 00:15:52;;;;;;;11.43;10.32;;;;;;;;;;4878780;29;20064;-68
2022/07/24 00:18:19;;;;;;;11.60;10.43;;;;;;;;;;4879323;29;20084;-68
2022/07/24 00:20:46;;;;;;;11.88;10.68;;;;;;;;;;4896695;29;20060;-68
2022/07/24 00:23:14;;;;;;;12.95;11.75;;;;;;;;;;4896758;29;20052;-68
2022/07/24 00:25:41;;;;;;;12.82;11.60;;;;;;;;;;4896827;29;20060;-68
2022/07/24 00:28:07;;;;;;;12.90;11.63;;;;;;;;;;4896772;29;20052;-67
2022/07/24 00:30:35;;;;;;;13.02;11.73;;;;;;;;;;4896654;29;20048;-68
2022/07/24 00:33:02;;;;;;;12.88;11.20;;;;;;;;;;4896643;29;20509;-68
2022/07/24 00:35:29;;;;;;;13.43;12.23;;;;;;;;;;4896704;29;20424;-68
2022/07/24 00:37:56;;;;;;;12.07;10.73;;;;;;;;;;4896537;29;20053;-68
2022/07/24 00:40:24;;;;;;;13.48;11.55;;;;;;;;;;4896847;29;20076;-68
2022/07/24 00:42:51;;;;;;;12.85;11.65;;;;;;;;;;4882525;29;20053;-68
2022/07/24 00:45:18;;;;;;;13.02;11.73;;;;;;;;;;4878469;29;20052;-68
2022/07/24 00:47:49;;;;;;;12.98;11.65;;;;;;;;;;4877790;29;20063;-68
2022/07/24 00:50:16;;;;;;;14.70;12.25;;;;;;;;;;4889460;29;20063;-68
2022/07/24 00:52:44;;;;;;;13.77;12.40;;;;;;;;;;4896456;29;20052;-67
2022/07/24 00:55:11;;;;;;;13.77;12.35;;;;;;;;;;4896612;29;20064;-67
2022/07/24 00:57:37;;;;;;;13.55;12.23;;;;;;;;;;4896572;29;20052;-68
2022/07/24 01:00:07;;;;;;;13.98;11.82;;;;;;;;;;4896305;29;20484;-67
2022/07/24 01:02:34;;;;;;;14.13;12.68;;;;;;;;;;4897415;29;20055;-67
2022/07/24 01:05:01;;;;;;;13.60;12.13;;;;;;;;;;4900422;29;20048;-67
2022/07/24 01:07:27;;;;;;;15.10;11.93;;;;;;;;;;4900291;29;20064;-68
2022/07/24 01:09:54;;;;;;;13.23;11.80;;;;;;;;;;4898755;29;20054;-68
2022/07/24 01:12:21;;;;;;;14.43;12.93;;;;;;;;;;4899891;29;20044;-68
2022/07/24 01:14:47;;;;;;;13.70;12.50;;;;;;;;;;4900201;29;20060;-68
2022/07/24 01:17:14;;;;;;;13.32;12.02;;;;;;;;;;4899959;29;20052;-68
2022/07/24 01:19:41;;;;;;;13.45;12.15;;;;;;;;;;4899769;29;20096;-68
2022/07/24 01:22:07;;;;;;;13.52;12.23;;;;;;;;;;4900069;29;20060;-68
2022/07/24 01:24:34;;;;;;;14.30;12.90;;;;;;;;;;4899511;29;20052;-68
2022/07/24 01:27:00;;;;;;;13.23;11.98;;;;;;;;;;4899960;29;20053;-68
2022/07/24 01:29:27;;;;;;;13.38;11.95;;;;;;;;;;4899604;29;20079;-68
2022/07/24 01:31:54;;;;;;;13.43;12.13;;;;;;;;;;4899644;29;20048;-68
2022/07/24 01:34:22;;;;;;;14.38;12.98;;;;;;;;;;4899861;29;20075;-67
2022/07/24 01:36:48;;;;;;;12.80;11.57;;;;;;;;;;4905355;29;20060;-69
2022/07/24 01:39:15;;;;;;;14.75;12.73;;;;;;;;;;4924598;29;20076;-69
2022/07/24 01:41:41;;;;;;;14.02;12.18;;;;;;;;;;4906935;29;20052;-68
2022/07/24 01:44:08;;;;;;;12.77;11.48;;;;;;;;;;4899435;29;20064;-68
2022/07/24 01:46:35;;;;;;;14.27;12.88;;;;;;;;;;4899840;29;20049;-68
2022/07/24 01:49:02;;;;;;;13.10;11.90;;;;;;;;;;4899470;29;20424;-68
2022/07/24 01:51:29;;;;;;;13.38;12.13;;;;;;;;;;4899369;29;20063;-68
2022/07/24 01:53:56;;;;;;;14.18;12.80;;;;;;;;;;4899175;29;20057;-68
2022/07/24 01:56:23;;;;;;;13.30;12.00;;;;;;;;;;4899381;29;20049;-68
2022/07/24 01:58:53;;;;;;;16.17;13.20;;;;;;;;;;4898975;29;20108;-69
2022/07/24 02:01:19;;;;;;;13.88;12.57;;;;;;;;;;4898200;29;20067;-68
2022/07/24 02:03:46;;;;;;;14.35;12.85;;;;;;;;;;4899426;29;20152;-68
2022/07/24 02:06:13;;;;;;;14.25;12.85;;;;;;;;;;4899099;29;20052;-68
2022/07/24 02:08:40;;;;;;;13.93;12.52;;;;;;;;;;4899004;29;20053;-67
2022/07/24 02:11:06;;;;;;;12.98;11.77;;;;;;;;;;4898994;29;20060;-67
2022/07/24 02:13:33;;;;;;;14.48;12.93;;;;;;;;;;4898571;29;20049;-67
2022/07/24 02:15:59;;;;;;;14.90;12.77;;;;;;;;;;4899090;29;20052;-67
2022/07/24 02:18:26;;;;;;;15.02;13.52;;;;;;;;;;4898776;29;20524;-68
2022/07/24 02:20:53;;;;;;;14.63;13.20;;;;;;;;;;4898770;29;20146;-68
2022/07/24 02:23:20;;;;;;;14.43;13.02;;;;;;;;;;4898715;29;20064;-67
2022/07/24 02:25:47;;;;;;;14.77;13.30;;;;;;;;;;4897489;29;20075;-68
2022/07/24 02:28:14;;;;;;;14.68;12.90;;;;;;;;;;4897654;29;20421;-68
2022/07/24 02:30:42;;;;;;;14.88;13.40;;;;;;;;;;4898681;29;20056;-67
2022/07/24 02:33:08;;;;;;;14.00;12.55;;;;;;;;;;4898517;29;20056;-68
2022/07/24 02:35:36;;;;;;;13.35;12.10;;;;;;;;;;4898520;29;20057;-68
2022/07/24 02:38:03;;;;;;;14.52;13.02;;;;;;;;;;4898423;29;20053;-68
2022/07/24 02:40:31;;;;;;;13.73;12.27;;;;;;;;;;4898460;29;20059;-68
2022/07/24 02:42:57;;;;;;;13.85;12.50;;;;;;;;;;4898603;29;20057;-68
2022/07/24 02:45:24;;;;;;;14.48;12.98;;;;;;;;;;4898658;29;20431;-68
2022/07/24 02:47:53;;;;;;;14.00;12.13;;;;;;;;;;4898231;29;20053;-68
2022/07/24 02:50:22;;;;;;;13.48;12.15;;;;;;;;;;4898319;29;20083;-68
2022/07/24 02:52:49;;;;;;;16.27;12.60;;;;;;;;;;4898079;29;20048;-68
2022/07/24 02:55:16;;;;;;;14.07;12.57;;;;;;;;;;4898096;29;20155;-67
2022/07/24 02:57:42;;;;;;;13.65;12.35;;;;;;;;;;4897220;29;20053;-68
2022/07/24 03:00:12;;;;;;;14.77;13.27;;;;;;;;;;4898098;29;20111;-68
2022/07/24 03:02:39;;;;;;;14.77;13.27;;;;;;;;;;4897925;29;20052;-68
2022/07/24 03:05:06;;;;;;;13.70;12.40;;;;;;;;;;4897886;29;20053;-67
2022/07/24 03:07:36;;;;;;;14.73;12.88;;;;;;;;;;4897873;29;20575;-68
2022/07/24 03:10:07;;;;;;;13.55;12.35;;;;;;;;;;4896610;29;20049;-68
2022/07/24 03:12:34;;;;;;;13.50;12.20;;;;;;;;;;4897934;29;20429;-68
2022/07/24 03:15:01;;;;;;;14.75;13.43;;;;;;;;;;4897375;29;20067;-68
2022/07/24 03:17:28;;;;;;;14.02;12.73;;;;;;;;;;4897928;29;20060;-67
2022/07/24 03:19:54;;;;;;;13.63;12.20;;;;;;;;;;4897592;29;20398;-68
2022/07/24 03:22:21;;;;;;;14.80;13.23;;;;;;;;;;4897665;29;20048;-68
2022/07/24 03:24:48;;;;;;;15.40;14.00;;;;;;;;;;4897141;29;20053;-67
2022/07/24 03:27:14;;;;;;;15.57;13.93;;;;;;;;;;4897629;29;20056;-67
2022/07/24 03:29:41;;;;;;;14.50;13.02;;;;;;;;;;4897381;29;20492;-68
2022/07/24 03:32:08;;;;;;;15.82;13.93;;;;;;;;;;4898053;29;20417;-67
2022/07/24 03:34:34;;;;;;;15.07;13.57;;;;;;;;;;4897370;29;20151;-67
2022/07/24 03:37:01;;;;;;;15.40;13.70;;;;;;;;;;4897672;29;20079;-67
2022/07/24 03:39:28;;;;;;;16.30;13.73;;;;;;;;;;4897386;29;20409;-67
2022/07/24 03:41:55;;;;;;;15.55;13.90;;;;;;;;;;4897430;29;20052;-67
2022/07/24 03:44:21;;;;;;;15.68;13.85;;;;;;;;;;4897308;29;20063;-68
2022/07/24 03:46:48;;;;;;;14.82;13.43;;;;;;;;;;4897320;29;20072;-67
2022/07/24 03:49:14;;;;;;;15.52;14.02;;;;;;;;;;4896960;29;20063;-67
2022/07/24 03:51:43;;;;;;;14.60;13.20;;;;;;;;;;4897552;29;20048;-67
2022/07/24 03:54:09;;;;;;;15.27;13.73;;;;;;;;;;4897069;29;20072;-67
2022/07/24 03:56:36;;;;;;;14.80;13.30;;;;;;;;;;4897163;29;20060;-67
2022/07/24 03:59:02;;;;;;;15.23;13.80;;;;;;;;;;4897298;29;20052;-67
2022/07/24 04:01:30;;;;;;;14.40;12.88;;;;;;;;;;4897094;29;20131;-67
2022/07/24 04:03:58;;;;;;;15.55;14.02;;;;;;;;;;4896792;29;20060;-67
2022/07/24 04:06:24;;;;;;;15.75;14.25;;;;;;;;;;4896074;29;20048;-67
2022/07/24 04:08:51;;;;;;;14.77;13.30;;;;;;;;;;4896858;29;20052;-67
2022/07/24 04:11:18;;;;;;;14.23;12.73;;;;;;;;;;4897024;29;20064;-68
2022/07/24 04:13:45;;;;;;;15.73;13.93;;;;;;;;;;4896947;29;20060;-68
2022/07/24 04:16:11;;;;;;;15.40;13.35;;;;;;;;;;4896860;29;20053;-67
2022/07/24 04:18:38;;;;;;;14.23;12.73;;;;;;;;;;4896734;29;20115;-69
2022/07/24 04:21:05;;;;;;;15.50;14.00;;;;;;;;;;4896985;29;20059;-68
2022/07/24 04:23:32;;;;;;;15.80;13.35;;;;;;;;;;4896633;29;20543;-67
2022/07/24 04:25:58;;;;;;;15.15;13.70;;;;;;;;;;4897017;29;20465;-67
2022/07/24 04:28:25;;;;;;;15.65;14.25;;;;;;;;;;4896549;29;20053;-67
2022/07/24 04:30:52;;;;;;;15.95;14.43;;;;;;;;;;4896678;29;20052;-67
2022/07/24 04:33:18;;;;;;;15.15;13.65;;;;;;;;;;4896498;29;20049;-68
2022/07/24 04:35:45;;;;;;;15.40;13.88;;;;;;;;;;4896854;29;20055;-68
2022/07/24 04:38:12;;;;;;;16.08;14.38;;;;;;;;;;4900326;29;20053;-67
2022/07/24 04:40:38;;;;;;;14.65;13.10;;;;;;;;;;4900879;29;20353;-67
2022/07/24 04:43:05;;;;;;;14.57;13.23;;;;;;;;;;4900573;29;20048;-69
2022/07/24 04:45:32;;;;;;;15.27;13.70;;;;;;;;;;4900412;29;20092;-67
2022/07/24 04:48:01;;;;;;;16.83;13.93;;;;;;;;;;4900369;29;20100;-68
2022/07/24 04:50:28;;;;;;;14.25;12.85;;;;;;;;;;4899567;29;20060;-70
2022/07/24 04:52:55;;;;;;;13.10;11.70;;;;;;;;;;4900465;29;20048;-72
2022/07/24 04:55:21;;;;;;;15.23;13.73;;;;;;;;;;4900205;29;20056;-71
2022/07/24 04:57:48;;;;;;;15.15;13.55;;;;;;;;;;4900253;29;20060;-71
2022/07/24 05:00:15;;;;;;;15.75;13.57;;;;;;;;;;4899977;29;20088;-71
2022/07/24 05:02:42;;;;;;;15.05;13.52;;;;;;;;;;4900267;29;20044;-71
2022/07/24 05:05:08;;;;;;;14.85;13.45;;;;;;;;;;4900322;29;20060;-71
2022/07/24 05:07:35;;;;;;;15.45;13.48;;;;;;;;;;4900097;29;20060;-70
2022/07/24 05:10:03;;;;;;;15.88;14.38;;;;;;;;;;4899883;29;20509;-71
2022/07/24 05:12:29;;;;;;;14.32;12.93;;;;;;;;;;4900034;29;20049;-71
2022/07/24 05:14:57;;;;;;;14.10;12.80;;;;;;;;;;4900811;29;20079;-71
2022/07/24 05:17:23;;;;;;;14.82;13.10;;;;;;;;;;4900587;29;20080;-70
2022/07/24 05:19:50;;;;;;;13.32;12.02;;;;;;;;;;4900206;29;20053;-70
2022/07/24 05:22:17;;;;;;;14.52;13.02;;;;;;;;;;4900373;29;20048;-70
2022/07/24 05:24:43;;;;;;;14.63;13.25;;;;;;;;;;4900039;29;20477;-70
2022/07/24 05:27:10;;;;;;;14.95;13.38;;;;;;;;;;4899853;29;20059;-71
2022/07/24 05:29:38;;;;;;;15.43;13.82;;;;;;;;;;4899756;29;20060;-71
2022/07/24 05:32:07;;;;;;;13.20;11.95;;;;;;;;;;4899817;29;20461;-71
2022/07/24 05:34:34;;;;;;;14.02;12.52;;;;;;;;;;4899694;29;20058;-71
2022/07/24 05:37:06;;;;;;;14.43;12.95;;;;;;;;;;4899755;29;20067;-71
2022/07/24 05:39:33;;;;;;;14.80;13.40;;;;;;;;;;4899286;29;20063;-71
2022/07/24 05:42:00;;;;;;;14.43;12.63;;;;;;;;;;4899607;29;20049;-71
2022/07/24 05:44:26;;;;;;;14.38;12.95;;;;;;;;;;4899418;29;20504;-71
2022/07/24 05:46:53;;;;;;;14.77;13.13;;;;;;;;;;4899508;29;20061;-70
2022/07/24 05:49:20;;;;;;;14.65;13.30;;;;;;;;;;4898599;29;20060;-71
2022/07/24 05:51:46;;;;;;;14.88;13.38;;;;;;;;;;4899163;29;20057;-71
2022/07/24 05:54:13;;;;;;;14.23;12.82;;;;;;;;;;4899265;29;20056;-71
2022/07/24 05:56:40;;;;;;;13.63;12.23;;;;;;;;;;4899268;29;20048;-71
2022/07/24 05:59:07;;;;;;;14.05;12.65;;;;;;;;;;4899131;29;20049;-71
2022/07/24 06:01:34;;;;;;;14.70;13.18;;;;;;;;;;4899282;29;20060;-71
2022/07/24 06:04:01;;;;;;;15.13;13.23;;;;;;;;;;4899091;29;20052;-71
2022/07/24 06:06:28;;;;;;;14.82;12.63;;;;;;;;;;4899274;29;20432;-71
2022/07/24 06:08:54;;;;;;;14.27;12.90;;;;;;;;;;4898664;29;20060;-70
2022/07/24 06:11:22;;;;;;;14.32;12.73;;;;;;;;;;4899311;29;20052;-71
2022/07/24 06:13:50;;;;;;;13.80;12.13;;;;;;;;;;4898732;29;20108;-71
2022/07/24 06:16:16;;;;;;;13.60;12.38;;;;;;;;;;4898962;29;20052;-71
2022/07/24 06:18:43;;;;;;;13.63;11.82;;;;;;;;;;4898703;29;20052;-71
2022/07/24 06:21:10;;;;;;;14.02;12.02;;;;;;;;;;4898835;29;20060;-71
2022/07/24 06:23:37;;;;;;;13.45;12.23;;;;;;;;;;4898612;29;20044;-71
2022/07/24 06:26:03;;;;;;;13.18;11.93;;;;;;;;;;4899040;29;20452;-71
2022/07/24 06:28:30;;;;;;;11.75;10.65;;;;;;;;;;4898685;29;20048;-72
2022/07/24 06:30:57;;;;;;;13.07;11.40;;;;;;;;;;4898685;29;20063;-71
2022/07/24 06:33:25;;;;;;;12.38;11.07;;;;;;;;;;4898510;29;20539;-71
2022/07/24 06:35:52;;;;;;;14.35;11.60;;;;;;;;;;4898540;29;20511;-71
2022/07/24 06:38:18;;;;;;;13.27;11.98;;;;;;;;;;4898476;29;20099;-71
2022/07/24 06:40:45;;;;;;;18.38;11.63;;;;;;;;;;4898568;29;20131;-71
2022/07/24 06:43:12;;;;;;;12.68;11.43;;;;;;;;;;4898518;29;20128;-71
2022/07/24 06:45:38;;;;;;;13.48;12.05;;;;;;;;;;4898576;29;20052;-71
2022/07/24 06:48:05;;;;;;;13.27;11.98;;;;;;;;;;4898429;29;20056;-71
2022/07/24 06:50:33;;;;;;;12.43;11.32;;;;;;;;;;4898178;29;20056;-71
2022/07/24 06:53:00;;;;;;;12.55;11.35;;;;;;;;;;4898140;29;20063;-71
2022/07/24 06:55:27;;;;;;;12.10;10.90;;;;;;;;;;4898374;29;20523;-71
2022/07/24 06:57:54;;;;;;;12.65;10.43;;;;;;;;;;4898212;29;20049;-72
2022/07/24 07:00:21;;;;;;;13.48;11.85;;;;;;;;;;4897071;29;20087;-71
2022/07/24 07:02:49;;;;;;;12.10;10.98;;;;;;;;;;4897911;29;20123;-71
2022/07/24 07:05:16;;;;;;;11.85;10.73;;;;;;;;;;4898292;29;20056;-71
2022/07/24 07:07:43;;;;;;;13.43;10.55;;;;;;;;;;4898431;29;20048;-71
2022/07/24 07:10:10;;;;;;;11.23;10.10;;;;;;;;;;4898015;29;20331;-70
2022/07/24 07:12:37;;;;;;;11.23;10.23;;;;;;;;;;4897829;29;20048;-71
2022/07/24 07:15:08;;;;;;;10.82;9.73;;;;;;;;;;4897884;29;20160;-72
2022/07/24 07:17:38;;;;;;;10.35;9.30;;;;;;;;;;4897833;29;20072;-71
2022/07/24 07:20:05;;;;;;;10.07;9.07;;;;;;;;;;4897401;29;20514;-71
2022/07/24 07:22:32;;;;;;;10.45;9.45;;;;;;;;;;4897963;29;20503;-71
2022/07/24 07:24:59;;;;;;;10.82;9.82;;;;;;;;;;4897670;29;20056;-72
2022/07/24 07:27:25;;;;;;;10.73;9.45;;;;;;;;;;4897779;29;20052;-71
2022/07/24 07:29:52;;;;;;;12.52;9.05;;;;;;;;;;4897597;29;20049;-71
2022/07/24 07:32:18;;;;;;;9.82;9.00;;;;;;;;;;4897458;29;20063;-71
2022/07/24 07:34:45;;;;;;;10.48;9.05;;;;;;;;;;4898278;29;20068;-72
2022/07/24 07:37:12;;;;;;;11.27;9.35;;;;;;;;;;4897797;29;20572;-71
2022/07/24 07:39:39;;;;;;;9.40;8.43;;;;;;;;;;4897665;29;20413;-71
2022/07/24 07:42:05;;;;;;;10.00;8.95;;;;;;;;;;4897906;29;20065;-72
2022/07/24 07:44:32;;;;;;;10.73;8.40;;;;;;;;;;4897286;29;20052;-71
2022/07/24 07:46:59;;;;;;;9.85;8.85;;;;;;;;;;4897560;29;20060;-72
2022/07/24 07:49:25;;;;;;;9.77;8.80;;;;;;;;;;4895845;29;20052;-72
2022/07/24 07:51:52;;;;;;;8.45;7.65;;;;;;;;;;4897374;29;20067;-72
2022/07/24 07:54:22;;;;;;;8.40;7.70;;;;;;;;;;4897316;29;20060;-71
2022/07/24 07:56:50;;;;;;;8.38;7.63;;;;;;;;;;4896209;29;20084;-72
2022/07/24 07:59:16;;;;;;;8.77;7.93;;;;;;;;;;4896772;29;20066;-71
2022/07/24 08:01:43;;;;;;;9.05;8.07;;;;;;;;;;4897116;29;20496;-71
2022/07/24 08:04:10;;;;;;;8.68;7.68;;;;;;;;;;4896996;29;20599;-72
2022/07/24 08:06:36;;;;;;;8.60;7.65;;;;;;;;;;4897228;29;20127;-72
2022/07/24 08:09:04;;;;;;;9.43;8.50;;;;;;;;;;4896839;29;20057;-72
2022/07/24 08:11:31;;;;;;;9.13;8.23;;;;;;;;;;4896701;29;20135;-72
2022/07/24 08:13:58;;;;;;;9.82;7.80;;;;;;;;;;4896794;29;20064;-73
2022/07/24 08:16:24;;;;;;;8.55;7.65;;;;;;;;;;4897227;29;20055;-72
2022/07/24 08:18:51;;;;;;;10.25;8.10;;;;;;;;;;4896666;29;20048;-71
2022/07/24 08:21:18;;;;;;;8.40;7.57;;;;;;;;;;4897040;29;20059;-73
2022/07/24 08:23:45;;;;;;;8.02;7.30;;;;;;;;;;4895449;29;20056;-71
2022/07/24 08:26:12;;;;;;;9.25;8.13;;;;;;;;;;4897028;29;20480;-72
2022/07/24 08:28:39;;;;;;;7.85;7.15;;;;;;;;;;4896780;29;20099;-72
2022/07/24 08:31:06;;;;;;;9.00;8.18;;;;;;;;;;4896904;29;20059;-72
2022/07/24 08:33:32;;;;;;;8.48;7.43;;;;;;;;;;4896685;29;20104;-72
2022/07/24 08:35:59;;;;;;;8.60;7.80;;;;;;;;;;4896893;29;20053;-72
2022/07/24 08:38:26;;;;;;;8.10;7.30;;;;;;;;;;4896483;29;20067;-71
2022/07/24 08:40:52;;;;;;;8.52;7.57;;;;;;;;;;4896527;29;20238;-71
2022/07/24 08:43:19;;;;;;;8.93;7.60;;;;;;;;;;4896585;29;20055;-70
2022/07/24 08:45:46;;;;;;;8.05;7.28;;;;;;;;;;4896764;29;20067;-70
2022/07/24 08:48:13;;;;;;;8.13;7.43;;;;;;;;;;4895000;29;20509;-70
2022/07/24 08:50:41;;;;;;;8.93;7.43;;;;;;;;;;4896601;29;20053;-69
2022/07/24 08:53:09;;;;;;;8.68;7.63;;;;;;;;;;4896468;29;20049;-69
2022/07/24 08:55:35;;;;;;;8.55;7.70;;;;;;;;;;4896467;29;20049;-70
2022/07/24 08:58:02;;;;;;;9.30;7.78;;;;;;;;;;4896745;29;20427;-69
2022/07/24 09:00:31;;;;;;;7.90;7.20;;;;;;;;;;4895609;29;20423;-70
2022/07/24 09:02:58;;;;;;;7.95;7.28;;;;;;;;;;4896666;29;20052;-69
2022/07/24 09:05:25;;;;;;;7.55;6.85;;;;;;;;;;4896597;29;20287;-69
2022/07/24 09:08:06;;;;;;;8.00;7.22;;;;;;;;;;4879640;29;20056;-70
2022/07/24 09:10:33;;;;;;;8.57;7.25;;;;;;;;;;4896404;29;20140;-71
2022/07/24 09:13:13;;;;;;;9.00;6.65;;;;;;;;;;4896302;29;20052;-70
2022/07/24 09:15:48;;;;;;;7.82;7.13;;;;;;;;;;4894763;29;20056;-70
2022/07/24 09:18:31;;;;;;;8.20;7.38;;;;;;;;;;4896205;29;20063;-70
2022/07/24 09:21:11;;;;;;;8.00;7.20;;;;;;;;;;4896204;29;20048;-70
2022/07/24 09:23:39;;;;;;;7.55;6.75;;;;;;;;;;4896371;29;20134;-70
2022/07/24 09:26:05;;;;;;;7.85;7.15;;;;;;;;;;4900054;29;20064;-71
2022/07/24 09:28:49;;;;;;;7.43;6.70;;;;;;;;;;4899063;29;20500;-71
2022/07/24 09:31:16;;;;;;;7.45;6.75;;;;;;;;;;4882161;29;20052;-70
2022/07/24 09:33:43;;;;;;;7.65;6.82;;;;;;;;;;4896301;29;20497;-70
2022/07/24 09:36:14;;;;;;;7.90;6.45;;;;;;;;;;4882131;29;20060;-71
2022/07/24 09:38:49;;;;;;;7.13;6.40;;;;;;;;;;4889206;29;20052;-70
2022/07/24 09:41:24;;;;;;;6.90;6.30;;;;;;;;;;4888452;29;20048;-70
2022/07/24 09:43:59;;;;;;;6.85;5.95;;;;;;;;;;4890037;29;20446;-68
2022/07/24 09:46:26;;;;;;;6.85;6.30;;;;;;;;;;4889260;29;20079;-69
2022/07/24 09:48:57;;;;;;;9.65;6.18;;;;;;;;;;4886058;29;20510;-67
2022/07/24 09:51:26;;;;;;;6.20;5.70;;;;;;;;;;4886315;29;20470;-68
2022/07/24 09:53:57;;;;;;;7.35;6.25;;;;;;;;;;4887205;29;20466;-69
2022/07/24 09:56:25;;;;;;;6.40;5.70;;;;;;;;;;4885477;29;20067;-67
2022/07/24 09:58:53;;;;;;;6.47;5.85;;;;;;;;;;4890987;29;20415;-69
2022/07/24 10:01:22;;;;;;;8.30;5.97;;;;;;;;;;4944225;23;20056;-68
2022/07/24 10:03:50;;;;;;;7.07;6.10;;;;;;;;;;4927882;29;20048;-71
2022/07/24 10:06:20;;;;;;;6.30;5.65;;;;;;;;;;4927042;29;20410;-71
2022/07/24 10:08:49;;;;;;;8.50;5.78;;;;;;;;;;4928941;29;20434;-68
2022/07/24 10:11:17;;;;;;;6.38;5.60;;;;;;;;;;4907533;29;20526;-69
2022/07/24 10:13:44;;;;;;;6.20;5.60;;;;;;;;;;4903341;29;20052;-67
2022/07/24 10:16:13;;;;;;;7.22;5.75;;;;;;;;;;4905868;29;20408;-70
2022/07/24 10:18:50;;;;;;;6.80;5.90;;;;;;;;;;4903135;29;20052;-70
2022/07/24 10:21:24;;;;;;;7.07;5.50;;;;;;;;;;4904708;29;20148;-69
2022/07/24 10:24:12;;;;;;;6.38;5.78;;;;;;;;;;4905151;29;20045;-69
2022/07/24 10:26:45;;;;;;;6.50;5.22;;;;;;;;;;4906113;29;20099;-68
2022/07/24 10:29:19;;;;;;;6.50;5.90;;;;;;;;;;4902853;29;20048;-70
2022/07/24 10:31:46;;;;;;;6.30;5.63;;;;;;;;;;4904270;29;20048;-71
2022/07/24 10:34:50;;;;;;;7.28;6.07;;;;;;;;;;4903785;29;20100;-70
2022/07/24 10:37:20;;;;;;;6.78;6.10;;;;;;;;;;4907991;29;20072;-70
2022/07/24 10:39:59;;;;;;;6.63;5.93;;;;;;;;;;4903130;29;20140;-71
2022/07/24 10:42:26;;;;;;;6.22;5.72;;;;;;;;;;4904961;29;20100;-71
2022/07/24 10:45:12;;;;;;;7.03;5.78;;;;;;;;;;4905258;29;20055;-71
2022/07/24 10:47:39;;;;;;;6.20;5.70;;;;;;;;;;4902738;29;20063;-70
2022/07/24 10:50:06;;;;;;;6.38;5.65;;;;;;;;;;4904434;29;20076;-70
2022/07/24 10:52:33;;;;;;;6.78;6.10;;;;;;;;;;4905812;29;20053;-70
2022/07/24 10:55:22;;;;;;;6.05;5.55;;;;;;;;;;4904491;29;20052;-70
2022/07/24 10:58:00;;;;;;;6.43;5.88;;;;;;;;;;4906579;29;20053;-70
2022/07/24 11:00:32;;;;;;;6.22;5.60;;;;;;;;;;4902796;29;20424;-69
2022/07/24 11:03:22;;;;;;;6.90;5.35;;;;;;;;;;4899281;29;20065;-71
2022/07/24 11:06:06;;;;;;;5.82;5.25;;;;;;;;;;4907903;29;20044;-70
2022/07/24 11:08:51;;;;;;;6.90;5.63;;;;;;;;;;4904066;29;20427;-70
2022/07/24 11:11:19;;;;;;;8.73;6.15;;;;;;;;;;4906038;29;20055;-69
2022/07/24 11:13:54;;;;;;;5.97;5.47;;;;;;;;;;4902406;29;20056;-70
2022/07/24 11:16:31;;;;;;;6.90;6.30;;;;;;;;;;4903852;29;20058;-70
2022/07/24 11:19:00;;;;;;;5.80;5.30;;;;;;;;;;4903905;29;20054;-70
2022/07/24 11:21:30;;;;;;;6.03;5.53;;;;;;;;;;4898460;29;20143;-70
2022/07/24 11:26:50;;;;;;;6.20;5.18;;;;;;;;;;4904389;29;20100;-70
2022/07/24 11:29:25;;;;;;;7.30;6.63;;;;;;;;;;4904705;29;20127;-70
2022/07/24 11:32:18;;;;;;;6.80;5.82;;;;;;;;;;4903460;29;20052;-69
2022/07/24 11:34:50;;;;;;;6.80;5.93;;;;;;;;;;4906501;29;20048;-72
2022/07/24 11:37:28;;;;;;;7.07;6.03;;;;;;;;;;4905753;29;20067;-72
2022/07/24 11:40:03;;;;;;;6.60;6.00;;;;;;;;;;4872601;29;20551;-70
2022/07/24 11:42:30;;;;;;;6.57;5.82;;;;;;;;;;4905884;29;20060;-72
2022/07/24 11:44:57;;;;;;;8.20;6.38;;;;;;;;;;4899987;29;21469;-70
2022/07/24 11:47:27;;;;;;;5.97;5.47;;;;;;;;;;4898015;29;20476;-72
2022/07/24 11:49:56;;;;;;;7.65;5.88;;;;;;;;;;4902177;29;20248;-72
2022/07/24 11:52:33;;;;;;;6.15;5.57;;;;;;;;;;4898944;29;20056;-72
2022/07/24 11:55:02;;;;;;;5.93;5.38;;;;;;;;;;4901344;29;20107;-72
2022/07/24 11:57:36;;;;;;;7.10;6.30;;;;;;;;;;4903662;29;20468;-72
2022/07/24 12:00:26;;;;;;;6.22;5.72;;;;;;;;;;4897186;29;20464;-72
2022/07/24 12:03:01;;;;;;;6.68;5.65;;;;;;;;;;4901615;29;20056;-71
2022/07/24 12:05:33;;;;;;;6.30;5.55;;;;;;;;;;4901666;29;20056;-72
2022/07/24 12:08:03;;;;;;;6.27;5.73;;;;;;;;;;4904655;29;20075;-73
2022/07/24 12:10:30;;;;;;;5.78;5.28;;;;;;;;;;4902966;29;20057;-72
2022/07/24 12:12:57;;;;;;;6.65;6.00;;;;;;;;;;4900595;29;20048;-72
2022/07/24 12:15:25;;;;;;;5.85;5.45;;;;;;;;;;4900505;29;20055;-72
2022/07/24 12:18:09;;;;;;;6.22;5.63;;;;;;;;;;4902598;29;20062;-72
2022/07/24 12:20:44;;;;;;;6.68;5.78;;;;;;;;;;4899587;29;20052;-72
2022/07/24 12:23:12;;;;;;;6.35;5.85;;;;;;;;;;4899652;29;20076;-72
2022/07/24 12:25:40;;;;;;;6.40;5.80;;;;;;;;;;4882230;29;20044;-72
2022/07/24 12:28:07;;;;;;;6.50;5.93;;;;;;;;;;4895609;29;20071;-72
2022/07/24 12:30:41;;;;;;;6.05;5.13;;;;;;;;;;4902346;29;20053;-71
2022/07/24 12:33:11;;;;;;;6.70;6.10;;;;;;;;;;4899286;29;20123;-71
2022/07/24 12:36:00;;;;;;;8.25;5.50;;;;;;;;;;4903749;29;20060;-71
2022/07/24 12:38:32;;;;;;;6.38;5.70;;;;;;;;;;4902749;29;20052;-71
2022/07/24 12:41:09;;;;;;;5.72;5.13;;;;;;;;;;4901177;29;20048;-72
2022/07/24 12:44:14;;;;;;;6.45;5.85;;;;;;;;;;4901537;29;20056;-72
2022/07/24 12:46:42;;;;;;;5.00;4.50;;;;;;;;;;4898666;29;20631;-71
2022/07/24 12:49:10;;;;;;;5.15;4.75;;;;;;;;;;4902985;29;20052;-72
2022/07/24 12:51:51;;;;;;;5.57;5.07;;;;;;;;;;4901167;29;20056;-71
2022/07/24 12:54:30;;;;;;;5.50;5.03;;;;;;;;;;4897659;29;20048;-71
2022/07/24 12:57:03;;;;;;;5.93;5.43;;;;;;;;;;4902530;29;20048;-71
2022/07/24 12:59:34;;;;;;;5.72;5.28;;;;;;;;;;4903507;29;20132;-71
2022/07/24 13:02:05;;;;;;;5.22;4.82;;;;;;;;;;4904775;29;20052;-71
2022/07/24 13:04:33;;;;;;;5.45;4.95;;;;;;;;;;4908842;29;20048;-71
2022/07/24 13:07:00;;;;;;;5.57;5.07;;;;;;;;;;4904820;29;20053;-71
2022/07/24 13:09:28;;;;;;;6.05;5.47;;;;;;;;;;4905051;29;20080;-71
2022/07/24 13:11:57;;;;;;;5.38;4.85;;;;;;;;;;4907361;29;20048;-71
2022/07/24 13:14:24;;;;;;;5.63;5.13;;;;;;;;;;4902774;29;20500;-71
2022/07/24 13:16:52;;;;;;;5.95;5.25;;;;;;;;;;4905014;29;20052;-71
2022/07/24 13:19:20;;;;;;;6.00;5.47;;;;;;;;;;4903919;29;20057;-71
2022/07/24 13:21:47;;;;;;;6.70;5.43;;;;;;;;;;4901036;29;20637;-71
2022/07/24 13:24:15;;;;;;;5.30;4.80;;;;;;;;;;4898602;29;20398;-71
2022/07/24 13:26:43;;;;;;;7.30;5.80;;;;;;;;;;4899306;29;20056;-71
2022/07/24 13:29:11;;;;;;;5.15;4.47;;;;;;;;;;4901916;29;20063;-71
2022/07/24 13:31:39;;;;;;;6.15;5.65;;;;;;;;;;4900831;29;20048;-71
2022/07/24 13:34:07;;;;;;;7.40;5.13;;;;;;;;;;4901040;29;20072;-70
2022/07/24 13:36:36;;;;;;;5.82;5.32;;;;;;;;;;4900066;29;20052;-71
2022/07/24 13:39:05;;;;;;;5.20;4.63;;;;;;;;;;4902411;29;20052;-71
2022/07/24 13:41:33;;;;;;;5.60;5.10;;;;;;;;;;4896426;29;20512;-71
2022/07/24 13:44:00;;;;;;;5.53;4.95;;;;;;;;;;4896350;29;20063;-71
2022/07/24 13:46:28;;;;;;;5.90;5.40;;;;;;;;;;4897711;29;20084;-71
2022/07/24 13:48:55;;;;;;;5.50;5.00;;;;;;;;;;4883493;29;20729;-73
2022/07/24 13:51:24;;;;;;;7.93;4.93;;;;;;;;;;4901779;29;20426;-73
2022/07/24 13:53:52;;;;;;;5.60;5.10;;;;;;;;;;4895931;29;20096;-72
2022/07/24 13:56:18;;;;;;;5.22;4.75;;;;;;;;;;4899577;29;20086;-73
2022/07/24 13:58:45;;;;;;;5.18;4.68;;;;;;;;;;4899271;29;20053;-72
2022/07/24 14:01:17;;;;;;;5.93;5.43;;;;;;;;;;4897786;29;20055;-71
2022/07/24 14:03:44;;;;;;;5.38;4.85;;;;;;;;;;4896918;29;20056;-73
2022/07/24 14:06:32;;;;;;;5.25;4.80;;;;;;;;;;4893337;29;20052;-74
2022/07/24 14:09:08;;;;;;;4.75;4.35;;;;;;;;;;4901765;29;20135;-73
2022/07/24 14:11:34;;;;;;;5.20;4.80;;;;;;;;;;4906673;29;20511;-75
2022/07/24 14:14:03;;;;;;;5.22;4.72;;;;;;;;;;4904786;29;20508;-75
2022/07/24 14:16:33;;;;;;;5.65;4.57;;;;;;;;;;4904590;29;20484;-74
2022/07/24 14:19:00;;;;;;;4.53;4.15;;;;;;;;;;4905012;29;20419;-78
2022/07/24 14:21:27;;;;;;;5.18;4.78;;;;;;;;;;4904404;29;20053;-76
2022/07/24 14:23:54;;;;;;;5.20;4.80;;;;;;;;;;4906615;29;20045;-78
2022/07/24 14:26:20;;;;;;;4.45;4.15;;;;;;;;;;4905722;29;20062;-75
2022/07/24 14:28:47;;;;;;;5.13;4.72;;;;;;;;;;4904741;29;20059;-76
2022/07/24 14:31:14;;;;;;;4.88;4.47;;;;;;;;;;4906780;29;20511;-75
2022/07/24 14:33:44;;;;;;;4.95;4.53;;;;;;;;;;4904630;29;20098;-76
2022/07/24 14:36:11;;;;;;;5.93;5.43;;;;;;;;;;4903055;29;20092;-73
2022/07/24 14:38:37;;;;;;;4.85;4.45;;;;;;;;;;4904849;29;20087;-79
2022/07/24 14:41:04;;;;;;;5.20;4.28;;;;;;;;;;4905800;29;20052;-75